createdAt,value
2019-03-06T00:00:11.669Z,100829.39
2019-03-06T00:00:50.445Z,100832.59
2019-03-06T00:01:28.515Z,100832.59
2019-03-06T00:02:04.604Z,100834.06
2019-03-06T00:02:40.798Z,100830.94
2019-03-06T00:03:17.174Z,100830.50
2019-03-06T00:03:53.322Z,100831.00
2019-03-06T00:04:29.537Z,100831.00
2019-03-06T00:05:06.009Z,100825.82
2019-03-06T00:05:42.214Z,100839.86
2019-03-06T00:06:18.370Z,100839.64
2019-03-06T00:06:54.581Z,100839.64
2019-03-06T00:07:30.723Z,100830.87
2019-03-06T00:08:06.994Z,100845.38
2019-03-06T00:08:43.197Z,100847.16
2019-03-06T00:09:19.255Z,100848.36
2019-03-06T00:09:55.382Z,100847.45
2019-03-06T00:10:31.908Z,100848.75
2019-03-06T00:11:08.095Z,100851.94
2019-03-06T00:11:44.326Z,100846.34
2019-03-06T00:12:20.475Z,100847.81
2019-03-06T00:12:56.684Z,100858.50
2019-03-06T00:13:32.857Z,100856.47
2019-03-06T00:14:09.029Z,100858.17
2019-03-06T00:14:45.344Z,100857.94
2019-03-06T00:15:21.503Z,100864.76
2019-03-06T00:15:57.622Z,100865.91
2019-03-06T00:16:33.788Z,100856.14
2019-03-06T00:17:09.925Z,100856.14
2019-03-06T00:17:46.142Z,100852.28
2019-03-06T00:18:22.381Z,100871.47
2019-03-06T00:18:58.524Z,100871.47
2019-03-06T00:19:34.820Z,100868.56
2019-03-06T00:20:10.891Z,100867.27
2019-03-06T00:20:47.079Z,100870.57
2019-03-06T00:21:23.274Z,100870.87
2019-03-06T00:21:59.418Z,100865.61
2019-03-06T00:22:35.619Z,100866.39
2019-03-06T00:23:11.715Z,100859.69
2019-03-06T00:23:47.870Z,100863.79
2019-03-06T00:24:24.130Z,100868.06
2019-03-06T00:25:00.324Z,100862.45
2019-03-06T00:25:36.601Z,100876.48
2019-03-06T00:26:12.686Z,100876.48
2019-03-06T00:26:48.799Z,100875.22
2019-03-06T00:27:24.822Z,100861.02
2019-03-06T00:28:00.935Z,100864.56
2019-03-06T00:28:37.305Z,100878.00
2019-03-06T00:29:13.419Z,100878.00
2019-03-06T00:29:49.537Z,100877.45
2019-03-06T00:30:25.703Z,100877.45
2019-03-06T00:31:02.103Z,100868.88
2019-03-06T00:31:38.321Z,100868.88
2019-03-06T00:32:14.537Z,100879.27
2019-03-06T00:32:50.696Z,100879.27
2019-03-06T00:33:26.797Z,100878.42
2019-03-06T00:34:02.925Z,100875.42
2019-03-06T00:34:39.191Z,100875.42
2019-03-06T00:35:19.822Z,100880.77
2019-03-06T00:35:56.122Z,100880.77
2019-03-06T00:36:33.124Z,100886.69
2019-03-06T00:37:09.262Z,100891.50
2019-03-06T00:37:45.434Z,100884.23
2019-03-06T00:38:21.550Z,100890.23
2019-03-06T00:38:57.746Z,100883.19
2019-03-06T00:39:41.741Z,100883.19
2019-03-06T00:40:36.825Z,100879.33
2019-03-06T00:41:26.924Z,100882.45
2019-03-06T00:42:03.070Z,100889.81
2019-03-06T00:42:43.417Z,100882.16
2019-03-06T00:43:19.538Z,100884.22
2019-03-06T00:43:55.725Z,100884.22
2019-03-06T00:44:31.839Z,100887.36
2019-03-06T00:45:09.549Z,100887.36
2019-03-06T00:45:45.711Z,100889.72
2019-03-06T00:46:21.847Z,100888.77
2019-03-06T00:46:58.094Z,100888.77
2019-03-06T00:47:34.287Z,100888.39
2019-03-06T00:48:10.443Z,100885.14
2019-03-06T00:48:46.562Z,100885.52
2019-03-06T00:49:22.767Z,100885.52
2019-03-06T00:49:59.100Z,100888.68
2019-03-06T00:50:35.249Z,100889.18
2019-03-06T00:51:11.570Z,100887.47
2019-03-06T00:51:47.745Z,100886.05
2019-03-06T00:52:23.919Z,100886.98
2019-03-06T00:53:00.026Z,100886.98
2019-03-06T00:53:36.282Z,100887.98
2019-03-06T00:54:12.414Z,100888.19
2019-03-06T00:54:48.564Z,100888.68
2019-03-06T00:55:24.771Z,100892.14
2019-03-06T00:56:01.027Z,100888.30
2019-03-06T00:56:37.178Z,100888.52
2019-03-06T00:57:13.342Z,100883.19
2019-03-06T00:57:49.551Z,100891.67
2019-03-06T00:58:25.658Z,100896.54
2019-03-06T00:59:02.005Z,100894.33
2019-03-06T00:59:38.199Z,100894.58
2019-03-06T01:00:15.781Z,100889.09
2019-03-06T01:00:51.996Z,100891.14
2019-03-06T01:01:28.149Z,100892.41
2019-03-06T01:02:04.575Z,100892.30
2019-03-06T01:02:40.735Z,100892.18
2019-03-06T01:03:17.007Z,100893.84
2019-03-06T01:03:53.296Z,100894.39
2019-03-06T01:04:29.594Z,100891.37
2019-03-06T01:05:06.048Z,100894.28
2019-03-06T01:05:42.191Z,100898.50
2019-03-06T01:06:18.261Z,100894.69
2019-03-06T01:06:54.810Z,100892.96
2019-03-06T01:07:31.004Z,100898.27
2019-03-06T01:08:07.185Z,100900.09
2019-03-06T01:08:43.467Z,100894.66
2019-03-06T01:09:19.640Z,100897.86
2019-03-06T01:09:55.801Z,100898.85
2019-03-06T01:10:31.910Z,100891.67
2019-03-06T01:11:08.067Z,100897.52
2019-03-06T01:11:44.246Z,100900.66
2019-03-06T01:12:20.527Z,100887.83
2019-03-06T01:12:56.786Z,100897.76
2019-03-06T01:13:32.778Z,100900.69
2019-03-06T01:14:08.882Z,100895.25
2019-03-06T01:14:44.998Z,100898.39
2019-03-06T01:15:21.339Z,100897.22
2019-03-06T01:15:57.678Z,100894.50
2019-03-06T01:16:33.839Z,100896.91
2019-03-06T01:17:10.039Z,100895.38
2019-03-06T01:17:46.336Z,100890.68
2019-03-06T01:18:22.539Z,100890.50
2019-03-06T01:18:58.634Z,100894.87
2019-03-06T01:19:34.744Z,100895.61
2019-03-06T01:20:10.908Z,100893.39
2019-03-06T01:20:47.060Z,100899.80
2019-03-06T01:21:23.104Z,100902.02
2019-03-06T01:21:59.181Z,100900.25
2019-03-06T01:22:35.479Z,100903.17
2019-03-06T01:23:11.621Z,100903.05
2019-03-06T01:23:47.789Z,100902.17
2019-03-06T01:24:23.939Z,100901.55
2019-03-06T01:25:00.305Z,100901.55
2019-03-06T01:25:36.590Z,100908.45
2019-03-06T01:26:12.757Z,100902.14
2019-03-06T01:26:48.997Z,100908.45
2019-03-06T01:27:25.161Z,100913.62
2019-03-06T01:28:01.408Z,100911.61
2019-03-06T01:28:37.588Z,100910.78
2019-03-06T01:29:13.679Z,100915.13
2019-03-06T01:29:49.731Z,100910.91
2019-03-06T01:30:25.902Z,100918.68
2019-03-06T01:31:02.156Z,100921.64
2019-03-06T01:31:38.405Z,100913.98
2019-03-06T01:32:14.464Z,100912.31
2019-03-06T01:32:53.791Z,100916.80
2019-03-06T01:33:46.972Z,100917.28
2019-03-06T01:34:50.898Z,100911.02
2019-03-06T01:35:48.582Z,100910.94
2019-03-06T01:36:49.408Z,100911.55
2019-03-06T01:37:56.478Z,100914.13
2019-03-06T01:39:01.299Z,100924.56
2019-03-06T01:40:05.167Z,100920.41
2019-03-06T01:40:57.060Z,100918.59
2019-03-06T01:41:49.668Z,100930.11
2019-03-06T01:42:39.923Z,100928.92
2019-03-06T01:43:34.887Z,100929.48
2019-03-06T01:44:15.721Z,100934.56
2019-03-06T01:44:55.403Z,100934.17
2019-03-06T01:45:31.662Z,100939.13
2019-03-06T01:46:07.933Z,100941.13
2019-03-06T01:46:44.195Z,100940.43
2019-03-06T01:47:20.379Z,100945.47
2019-03-06T01:47:56.493Z,100945.84
2019-03-06T01:48:32.663Z,100943.48
2019-03-06T01:49:08.811Z,100942.77
2019-03-06T01:49:45.130Z,100941.81
2019-03-06T01:50:21.190Z,100944.41
2019-03-06T01:50:57.471Z,100940.81
2019-03-06T01:51:33.625Z,100946.34
2019-03-06T01:52:09.745Z,100945.22
2019-03-06T01:52:45.867Z,100949.13
2019-03-06T01:53:21.997Z,100947.77
2019-03-06T01:53:58.114Z,100950.66
2019-03-06T01:54:34.205Z,100957.62
2019-03-06T01:55:12.058Z,100951.22
2019-03-06T01:55:48.195Z,100951.97
2019-03-06T01:56:24.336Z,100955.89
2019-03-06T01:57:00.521Z,100957.41
2019-03-06T01:57:36.973Z,100962.64
2019-03-06T01:58:13.219Z,100956.80
2019-03-06T01:58:49.503Z,100950.74
2019-03-06T01:59:25.632Z,100957.14
2019-03-06T02:00:01.729Z,100958.03
2019-03-06T02:00:38.149Z,100963.46
2019-03-06T02:01:14.334Z,100959.77
2019-03-06T02:01:50.420Z,100962.27
2019-03-06T02:02:26.684Z,100962.03
2019-03-06T02:03:02.823Z,100959.94
2019-03-06T02:03:39.144Z,100960.44
2019-03-06T02:04:15.267Z,100956.64
2019-03-06T02:04:51.464Z,100956.33
2019-03-06T02:05:27.571Z,100957.14
2019-03-06T02:06:03.710Z,100962.56
2019-03-06T02:06:40.098Z,100954.61
2019-03-06T02:07:16.518Z,100965.25
2019-03-06T02:07:52.590Z,100952.05
2019-03-06T02:08:28.704Z,100963.31
2019-03-06T02:09:05.231Z,100960.66
2019-03-06T02:09:41.401Z,100958.58
2019-03-06T02:10:17.975Z,100959.13
2019-03-06T02:10:54.128Z,100963.55
2019-03-06T02:11:30.241Z,100958.73
2019-03-06T02:12:06.948Z,100960.82
2019-03-06T02:12:43.159Z,100963.88
2019-03-06T02:13:19.984Z,100952.48
2019-03-06T02:13:56.147Z,100957.42
2019-03-06T02:14:32.482Z,100961.69
2019-03-06T02:15:09.155Z,100954.79
2019-03-06T02:15:45.285Z,100954.79
2019-03-06T02:16:21.362Z,100956.39
2019-03-06T02:16:57.472Z,100959.02
2019-03-06T02:17:33.609Z,100957.90
2019-03-06T02:18:09.784Z,100955.23
2019-03-06T02:18:45.952Z,100959.22
2019-03-06T02:19:22.201Z,100958.19
2019-03-06T02:19:58.364Z,100960.98
2019-03-06T02:20:34.568Z,100964.42
2019-03-06T02:21:10.735Z,100960.71
2019-03-06T02:21:46.828Z,100963.81
2019-03-06T02:22:23.039Z,100960.46
2019-03-06T02:22:59.185Z,100956.42
2019-03-06T02:23:35.433Z,100961.68
2019-03-06T02:24:11.616Z,100961.25
2019-03-06T02:24:47.701Z,100962.81
2019-03-06T02:25:23.861Z,100963.89
2019-03-06T02:25:59.925Z,100954.34
2019-03-06T02:26:36.069Z,100955.85
2019-03-06T02:27:12.246Z,100958.95
2019-03-06T02:27:48.378Z,100959.42
2019-03-06T02:28:24.477Z,100959.19
2019-03-06T02:29:00.616Z,100959.80
2019-03-06T02:29:36.742Z,100953.61
2019-03-06T02:30:15.236Z,100952.88
2019-03-06T02:30:51.352Z,100953.42
2019-03-06T02:31:27.877Z,100955.55
2019-03-06T02:32:03.980Z,100951.98
2019-03-06T02:32:40.325Z,100955.21
2019-03-06T02:33:16.616Z,100954.88
2019-03-06T02:33:52.841Z,100955.91
2019-03-06T02:34:29.103Z,100951.59
2019-03-06T02:35:05.387Z,100955.75
2019-03-06T02:35:41.524Z,100961.20
2019-03-06T02:36:17.683Z,100958.61
2019-03-06T02:36:53.809Z,100958.28
2019-03-06T02:37:30.041Z,100959.45
2019-03-06T02:38:06.129Z,100960.08
2019-03-06T02:38:42.272Z,100958.25
2019-03-06T02:39:18.357Z,100960.11
2019-03-06T02:39:54.566Z,100959.22
2019-03-06T02:40:30.713Z,100964.01
2019-03-06T02:41:06.899Z,100960.08
2019-03-06T02:41:43.264Z,100964.77
2019-03-06T02:42:19.401Z,100963.54
2019-03-06T02:42:55.565Z,100957.88
2019-03-06T02:43:31.721Z,100959.05
2019-03-06T02:44:07.939Z,100963.06
2019-03-06T02:44:44.017Z,100967.52
2019-03-06T02:45:20.285Z,100968.61
2019-03-06T02:45:56.416Z,100973.41
2019-03-06T02:46:32.538Z,100967.27
2019-03-06T02:47:08.687Z,100970.73
2019-03-06T02:47:44.970Z,100971.66
2019-03-06T02:48:21.128Z,100968.25
2019-03-06T02:48:57.275Z,100975.77
2019-03-06T02:49:33.484Z,100972.37
2019-03-06T02:50:11.025Z,100969.88
2019-03-06T02:50:47.399Z,100977.39
2019-03-06T02:51:23.542Z,100967.39
2019-03-06T02:51:59.571Z,100966.75
2019-03-06T02:52:35.774Z,100970.61
2019-03-06T02:53:11.986Z,100967.44
2019-03-06T02:53:48.154Z,100968.92
2019-03-06T02:54:24.268Z,100963.92
2019-03-06T02:55:00.549Z,100966.77
2019-03-06T02:55:36.638Z,100969.73
2019-03-06T02:56:12.704Z,100968.28
2019-03-06T02:56:48.878Z,100972.27
2019-03-06T02:57:24.952Z,100967.50
2019-03-06T02:58:20.792Z,100973.87
2019-03-06T02:59:18.410Z,100968.30
2019-03-06T03:00:19.451Z,100977.29
2019-03-06T03:01:03.858Z,100976.94
2019-03-06T03:02:01.468Z,100976.94
2019-03-06T03:02:57.985Z,100969.20
2019-03-06T03:03:55.692Z,100970.45
2019-03-06T03:04:42.386Z,100970.22
2019-03-06T03:05:34.763Z,100968.36
2019-03-06T03:06:17.223Z,100964.48
2019-03-06T03:06:56.855Z,100960.56
2019-03-06T03:07:33.106Z,100967.44
2019-03-06T03:08:09.296Z,100964.75
2019-03-06T03:08:45.478Z,100957.02
2019-03-06T03:09:22.045Z,100966.36
2019-03-06T03:09:58.189Z,100964.32
2019-03-06T03:10:34.351Z,100964.13
2019-03-06T03:11:10.645Z,100964.71
2019-03-06T03:11:46.739Z,100969.84
2019-03-06T03:12:22.850Z,100966.64
2019-03-06T03:12:58.993Z,100969.83
2019-03-06T03:13:35.122Z,100962.09
2019-03-06T03:14:11.258Z,100970.98
2019-03-06T03:14:47.411Z,100971.42
2019-03-06T03:15:23.614Z,100968.46
2019-03-06T03:15:59.794Z,100968.13
2019-03-06T03:16:35.938Z,100972.79
2019-03-06T03:17:12.076Z,100972.56
2019-03-06T03:17:48.146Z,100971.31
2019-03-06T03:18:24.381Z,100969.62
2019-03-06T03:19:00.460Z,100960.97
2019-03-06T03:19:36.559Z,100970.34
2019-03-06T03:20:12.997Z,100970.34
2019-03-06T03:20:49.105Z,100964.12
2019-03-06T03:21:26.986Z,100963.77
2019-03-06T03:22:03.212Z,100966.66
2019-03-06T03:22:39.424Z,100966.66
2019-03-06T03:23:15.643Z,100967.34
2019-03-06T03:23:51.776Z,100967.98
2019-03-06T03:24:28.009Z,100964.65
2019-03-06T03:25:04.266Z,100967.61
2019-03-06T03:25:40.453Z,100967.84
2019-03-06T03:26:16.811Z,100966.81
2019-03-06T03:26:52.904Z,100964.19
2019-03-06T03:27:29.033Z,100971.02
2019-03-06T03:28:05.284Z,100967.46
2019-03-06T03:28:41.449Z,100967.04
2019-03-06T03:29:17.841Z,100965.22
2019-03-06T03:29:54.180Z,100969.66
2019-03-06T03:30:30.308Z,100964.23
2019-03-06T03:31:06.630Z,100967.00
2019-03-06T03:31:42.811Z,100962.55
2019-03-06T03:32:18.953Z,100957.66
2019-03-06T03:32:55.176Z,100963.34
2019-03-06T03:33:31.336Z,100959.02
2019-03-06T03:34:07.571Z,100962.66
2019-03-06T03:34:43.749Z,100965.63
2019-03-06T03:35:19.848Z,100967.22
2019-03-06T03:35:56.011Z,100962.44
2019-03-06T03:36:32.252Z,100967.56
2019-03-06T03:37:08.363Z,100969.64
2019-03-06T03:37:44.512Z,100964.50
2019-03-06T03:38:20.870Z,100958.58
2019-03-06T03:38:57.023Z,100968.03
2019-03-06T03:39:33.132Z,100963.59
2019-03-06T03:40:10.021Z,100966.09
2019-03-06T03:40:46.113Z,100964.95
2019-03-06T03:41:22.230Z,100965.17
2019-03-06T03:41:58.316Z,100965.44
2019-03-06T03:42:34.497Z,100962.23
2019-03-06T03:43:10.607Z,100965.20
2019-03-06T03:43:46.811Z,100954.96
2019-03-06T03:44:22.950Z,100953.70
2019-03-06T03:44:59.229Z,100957.11
2019-03-06T03:45:35.472Z,100954.03
2019-03-06T03:46:11.514Z,100959.38
2019-03-06T03:46:47.706Z,100963.59
2019-03-06T03:47:24.067Z,100953.33
2019-03-06T03:48:00.207Z,100957.43
2019-03-06T03:48:36.336Z,100959.70
2019-03-06T03:49:12.532Z,100954.36
2019-03-06T03:49:48.628Z,100956.97
2019-03-06T03:50:24.784Z,100957.20
2019-03-06T03:51:00.984Z,100957.45
2019-03-06T03:51:37.121Z,100961.08
2019-03-06T03:52:13.243Z,100958.80
2019-03-06T03:52:49.518Z,100955.59
2019-03-06T03:53:25.694Z,100956.52
2019-03-06T03:54:01.864Z,100955.47
2019-03-06T03:54:38.004Z,100952.61
2019-03-06T03:55:14.421Z,100952.27
2019-03-06T03:55:50.621Z,100952.14
2019-03-06T03:56:26.992Z,100951.22
2019-03-06T03:57:03.100Z,100950.55
2019-03-06T03:57:39.390Z,100951.02
2019-03-06T03:58:15.608Z,100945.77
2019-03-06T03:58:51.731Z,100947.38
2019-03-06T03:59:27.868Z,100943.72
2019-03-06T04:00:04.017Z,100940.53
2019-03-06T04:00:40.177Z,100947.70
2019-03-06T04:01:16.240Z,100946.02
2019-03-06T04:01:52.612Z,100946.91
2019-03-06T04:02:28.803Z,100943.28
2019-03-06T04:03:05.140Z,100941.91
2019-03-06T04:03:41.313Z,100945.89
2019-03-06T04:04:17.470Z,100940.42
2019-03-06T04:04:53.663Z,100944.65
2019-03-06T04:05:29.780Z,100942.80
2019-03-06T04:06:05.931Z,100943.73
2019-03-06T04:06:42.201Z,100945.99
2019-03-06T04:07:18.587Z,100941.53
2019-03-06T04:07:54.938Z,100945.52
2019-03-06T04:08:31.090Z,100944.02
2019-03-06T04:09:08.163Z,100944.72
2019-03-06T04:09:44.434Z,100941.41
2019-03-06T04:10:20.487Z,100937.08
2019-03-06T04:10:56.639Z,100944.65
2019-03-06T04:11:32.773Z,100946.11
2019-03-06T04:12:09.000Z,100937.55
2019-03-06T04:12:45.081Z,100938.92
2019-03-06T04:13:21.208Z,100935.06
2019-03-06T04:13:57.390Z,100938.25
2019-03-06T04:14:33.500Z,100935.04
2019-03-06T04:15:10.670Z,100936.53
2019-03-06T04:15:47.059Z,100936.63
2019-03-06T04:16:23.127Z,100929.02
2019-03-06T04:16:59.361Z,100934.48
2019-03-06T04:17:35.529Z,100928.22
2019-03-06T04:18:11.693Z,100931.41
2019-03-06T04:18:47.851Z,100929.11
2019-03-06T04:19:23.884Z,100925.48
2019-03-06T04:19:59.988Z,100931.18
2019-03-06T04:20:36.190Z,100922.27
2019-03-06T04:21:12.258Z,100928.22
2019-03-06T04:21:48.447Z,100922.49
2019-03-06T04:22:24.616Z,100922.97
2019-03-06T04:23:00.824Z,100925.93
2019-03-06T04:23:36.987Z,100924.34
2019-03-06T04:24:13.167Z,100922.52
2019-03-06T04:24:49.531Z,100922.74
2019-03-06T04:25:25.734Z,100920.92
2019-03-06T04:26:01.893Z,100924.34
2019-03-06T04:26:37.993Z,100923.64
2019-03-06T04:27:14.167Z,100917.27
2019-03-06T04:27:50.232Z,100918.16
2019-03-06T04:28:28.001Z,100909.59
2019-03-06T04:29:04.275Z,100908.80
2019-03-06T04:29:40.423Z,100909.72
2019-03-06T04:30:16.576Z,100911.09
2019-03-06T04:30:55.228Z,100911.56
2019-03-06T04:31:31.463Z,100908.83
2019-03-06T04:32:07.603Z,100908.03
2019-03-06T04:32:44.119Z,100909.99
2019-03-06T04:33:20.405Z,100905.19
2019-03-06T04:33:56.577Z,100905.64
2019-03-06T04:34:32.681Z,100899.02
2019-03-06T04:35:09.024Z,100897.75
2019-03-06T04:35:45.208Z,100901.77
2019-03-06T04:36:21.367Z,100898.20
2019-03-06T04:36:57.567Z,100897.19
2019-03-06T04:37:33.734Z,100898.74
2019-03-06T04:38:09.840Z,100897.12
2019-03-06T04:38:46.388Z,100897.08
2019-03-06T04:39:22.710Z,100895.27
2019-03-06T04:39:59.325Z,100894.73
2019-03-06T04:40:35.525Z,100890.40
2019-03-06T04:41:11.741Z,100894.67
2019-03-06T04:41:48.256Z,100894.80
2019-03-06T04:42:24.304Z,100888.52
2019-03-06T04:43:00.453Z,100892.16
2019-03-06T04:43:36.605Z,100883.94
2019-03-06T04:44:12.700Z,100884.29
2019-03-06T04:44:48.862Z,100880.18
2019-03-06T04:45:25.122Z,100881.92
2019-03-06T04:46:01.298Z,100886.48
2019-03-06T04:46:37.415Z,100879.44
2019-03-06T04:47:13.617Z,100878.52
2019-03-06T04:47:49.904Z,100879.88
2019-03-06T04:48:25.973Z,100879.76
2019-03-06T04:49:02.102Z,100875.56
2019-03-06T04:49:38.223Z,100883.07
2019-03-06T04:50:14.523Z,100879.28
2019-03-06T04:50:50.842Z,100876.67
2019-03-06T04:51:27.059Z,100867.98
2019-03-06T04:52:03.169Z,100866.52
2019-03-06T04:52:39.373Z,100862.52
2019-03-06T04:53:15.563Z,100867.06
2019-03-06T04:53:51.676Z,100863.21
2019-03-06T04:54:27.804Z,100863.12
2019-03-06T04:55:04.136Z,100862.09
2019-03-06T04:55:40.284Z,100860.60
2019-03-06T04:56:16.499Z,100861.88
2019-03-06T04:56:52.619Z,100851.91
2019-03-06T04:57:28.750Z,100853.38
2019-03-06T04:58:04.999Z,100852.48
2019-03-06T04:58:41.206Z,100853.38
2019-03-06T04:59:17.258Z,100843.57
2019-03-06T04:59:53.809Z,100841.98
2019-03-06T05:00:29.934Z,100839.91
2019-03-06T05:01:06.099Z,100842.42
2019-03-06T05:01:42.324Z,100843.57
2019-03-06T05:02:18.451Z,100835.93
2019-03-06T05:02:54.616Z,100838.19
2019-03-06T05:03:30.871Z,100835.13
2019-03-06T05:04:07.018Z,100823.70
2019-03-06T05:04:43.171Z,100822.34
2019-03-06T05:05:19.310Z,100828.28
2019-03-06T05:05:55.544Z,100817.55
2019-03-06T05:06:31.660Z,100817.74
2019-03-06T05:07:07.726Z,100815.45
2019-03-06T05:07:43.803Z,100815.53
2019-03-06T05:08:19.882Z,100813.59
2019-03-06T05:08:56.085Z,100809.58
2019-03-06T05:09:32.189Z,100811.28
2019-03-06T05:10:08.776Z,100813.09
2019-03-06T05:10:45.067Z,100814.24
2019-03-06T05:11:21.172Z,100811.95
2019-03-06T05:11:57.326Z,100813.09
2019-03-06T05:12:33.439Z,100812.39
2019-03-06T05:13:09.597Z,100815.63
2019-03-06T05:13:45.754Z,100809.70
2019-03-06T05:14:21.844Z,100812.70
2019-03-06T05:14:57.974Z,100810.10
2019-03-06T05:15:34.226Z,100807.67
2019-03-06T05:16:10.506Z,100801.41
2019-03-06T05:17:03.492Z,100806.75
2019-03-06T05:18:04.519Z,100803.52
2019-03-06T05:18:57.410Z,100798.95
2019-03-06T05:19:33.728Z,100797.02
2019-03-06T05:20:09.961Z,100792.95
2019-03-06T05:20:46.279Z,100794.53
2019-03-06T05:21:22.627Z,100792.99
2019-03-06T05:21:58.806Z,100791.14
2019-03-06T05:22:34.904Z,100791.71
2019-03-06T05:23:11.174Z,100787.47
2019-03-06T05:23:47.346Z,100786.30
2019-03-06T05:24:23.452Z,100784.22
2019-03-06T05:24:59.561Z,100784.93
2019-03-06T05:25:36.248Z,100783.53
2019-03-06T05:26:12.607Z,100785.81
2019-03-06T05:26:48.971Z,100774.84
2019-03-06T05:27:25.180Z,100780.58
2019-03-06T05:28:01.344Z,100775.31
2019-03-06T05:28:37.554Z,100776.27
2019-03-06T05:29:13.687Z,100775.56
2019-03-06T05:29:49.870Z,100774.43
2019-03-06T05:30:27.180Z,100767.83
2019-03-06T05:31:03.350Z,100772.18
2019-03-06T05:31:39.480Z,100766.27
2019-03-06T05:32:40.423Z,100763.30
2019-03-06T05:33:16.779Z,100771.83
2019-03-06T05:33:52.977Z,100766.97
2019-03-06T05:34:29.095Z,100761.49
2019-03-06T05:35:14.425Z,100759.24
2019-03-06T05:36:37.146Z,100760.26
2019-03-06T05:38:14.287Z,100759.33
2019-03-06T05:39:05.548Z,100756.90
2019-03-06T05:39:41.844Z,100760.78
2019-03-06T05:40:18.010Z,100754.07
2019-03-06T05:40:54.121Z,100759.91
2019-03-06T05:41:30.276Z,100752.05
2019-03-06T05:42:06.318Z,100754.89
2019-03-06T05:42:42.541Z,100757.88
2019-03-06T05:43:18.689Z,100751.70
2019-03-06T05:43:55.002Z,100751.03
2019-03-06T05:44:31.087Z,100742.91
2019-03-06T05:45:07.284Z,100745.66
2019-03-06T05:45:43.462Z,100746.50
2019-03-06T05:46:19.582Z,100742.83
2019-03-06T05:46:55.734Z,100739.08
2019-03-06T05:47:31.801Z,100736.78
2019-03-06T05:48:07.909Z,100731.39
2019-03-06T05:48:44.134Z,100737.80
2019-03-06T05:49:20.347Z,100733.91
2019-03-06T05:49:56.466Z,100726.62
2019-03-06T05:50:32.684Z,100734.12
2019-03-06T05:51:08.792Z,100733.45
2019-03-06T05:51:45.157Z,100724.66
2019-03-06T05:52:21.268Z,100727.97
2019-03-06T05:52:57.456Z,100724.87
2019-03-06T05:53:33.658Z,100720.62
2019-03-06T05:54:09.741Z,100725.39
2019-03-06T05:54:45.959Z,100721.15
2019-03-06T05:55:22.088Z,100714.41
2019-03-06T05:55:58.397Z,100714.85
2019-03-06T05:56:34.666Z,100712.33
2019-03-06T05:57:10.856Z,100713.48
2019-03-06T05:57:46.923Z,100712.36
2019-03-06T05:58:23.029Z,100713.37
2019-03-06T05:58:59.267Z,100710.96
2019-03-06T05:59:35.398Z,100712.77
2019-03-06T06:00:11.997Z,100709.09
2019-03-06T06:00:48.405Z,100712.11
2019-03-06T06:01:24.499Z,100716.44
2019-03-06T06:02:00.623Z,100712.11
2019-03-06T06:02:36.750Z,100714.06
2019-03-06T06:03:12.908Z,100704.41
2019-03-06T06:03:48.990Z,100708.25
2019-03-06T06:04:25.242Z,100703.89
2019-03-06T06:05:01.414Z,100710.98
2019-03-06T06:05:37.484Z,100704.20
2019-03-06T06:06:13.676Z,100707.38
2019-03-06T06:06:49.799Z,100704.63
2019-03-06T06:07:25.997Z,100702.77
2019-03-06T06:08:02.204Z,100694.55
2019-03-06T06:08:38.400Z,100703.70
2019-03-06T06:09:14.567Z,100696.94
2019-03-06T06:09:50.870Z,100704.83
2019-03-06T06:10:27.000Z,100697.70
2019-03-06T06:11:03.154Z,100697.91
2019-03-06T06:11:39.310Z,100698.60
2019-03-06T06:12:15.492Z,100694.52
2019-03-06T06:12:51.552Z,100689.92
2019-03-06T06:13:27.724Z,100697.23
2019-03-06T06:14:03.898Z,100699.04
2019-03-06T06:14:40.115Z,100690.68
2019-03-06T06:15:16.250Z,100694.08
2019-03-06T06:15:52.356Z,100689.17
2019-03-06T06:16:28.506Z,100687.80
2019-03-06T06:17:04.714Z,100689.60
2019-03-06T06:17:41.080Z,100688.45
2019-03-06T06:18:17.233Z,100688.45
2019-03-06T06:18:53.428Z,100686.86
2019-03-06T06:19:29.920Z,100682.69
2019-03-06T06:20:06.430Z,100678.94
2019-03-06T06:20:42.662Z,100681.31
2019-03-06T06:21:55.394Z,100683.84
2019-03-06T06:22:36.571Z,100685.28
2019-03-06T06:23:34.657Z,100680.13
2019-03-06T06:24:19.481Z,100675.19
2019-03-06T06:24:55.593Z,100670.72
2019-03-06T06:25:32.744Z,100669.41
2019-03-06T06:26:09.004Z,100672.79
2019-03-06T06:26:45.827Z,100670.41
2019-03-06T06:27:22.454Z,100669.08
2019-03-06T06:27:59.131Z,100668.53
2019-03-06T06:28:35.872Z,100669.24
2019-03-06T06:29:12.503Z,100671.05
2019-03-06T06:29:48.704Z,100662.39
2019-03-06T06:30:24.961Z,100662.47
2019-03-06T06:31:01.156Z,100660.53
2019-03-06T06:31:37.347Z,100662.37
2019-03-06T06:32:13.530Z,100661.82
2019-03-06T06:32:49.752Z,100652.67
2019-03-06T06:33:25.843Z,100653.96
2019-03-06T06:34:01.999Z,100656.20
2019-03-06T06:34:38.225Z,100658.72
2019-03-06T06:35:14.377Z,100651.22
2019-03-06T06:35:50.459Z,100651.44
2019-03-06T06:36:26.611Z,100650.07
2019-03-06T06:37:02.818Z,100652.16
2019-03-06T06:37:38.939Z,100642.13
2019-03-06T06:38:15.052Z,100648.84
2019-03-06T06:38:51.270Z,100650.64
2019-03-06T06:39:27.487Z,100648.08
2019-03-06T06:40:03.584Z,100645.47
2019-03-06T06:40:39.860Z,100645.12
2019-03-06T06:41:16.140Z,100646.27
2019-03-06T06:41:52.279Z,100644.69
2019-03-06T06:42:28.440Z,100641.37
2019-03-06T06:43:04.560Z,100641.80
2019-03-06T06:43:40.859Z,100642.38
2019-03-06T06:44:16.923Z,100644.08
2019-03-06T06:44:53.376Z,100636.44
2019-03-06T06:45:29.532Z,100637.83
2019-03-06T06:46:07.556Z,100643.37
2019-03-06T06:46:43.594Z,100641.07
2019-03-06T06:47:19.826Z,100635.89
2019-03-06T06:48:13.445Z,100638.05
2019-03-06T06:48:49.595Z,100632.14
2019-03-06T06:49:25.892Z,100635.59
2019-03-06T06:50:02.130Z,100627.73
2019-03-06T06:50:38.536Z,100629.16
2019-03-06T06:51:36.806Z,100621.58
2019-03-06T06:52:37.507Z,100628.42
2019-03-06T06:53:36.509Z,100628.42
2019-03-06T06:54:21.245Z,100623.63
2019-03-06T06:55:29.012Z,100621.11
2019-03-06T06:56:27.426Z,100624.40
2019-03-06T06:57:16.907Z,100621.30
2019-03-06T06:58:46.381Z,100622.61
2019-03-06T06:59:44.027Z,100615.83
2019-03-06T07:01:14.680Z,100619.44
2019-03-06T07:02:28.227Z,100620.59
2019-03-06T07:03:57.601Z,100610.08
2019-03-06T07:05:28.887Z,100610.08
2019-03-06T07:06:19.198Z,100611.14
2019-03-06T07:07:16.997Z,100606.33
2019-03-06T07:08:13.173Z,100601.51
2019-03-06T07:09:10.841Z,100604.03
2019-03-06T07:10:14.665Z,100598.34
2019-03-06T07:11:09.677Z,100595.57
2019-03-06T07:11:52.283Z,100589.77
2019-03-06T07:13:02.056Z,100592.02
2019-03-06T07:13:59.366Z,100587.49
2019-03-06T07:15:03.287Z,100591.71
2019-03-06T07:16:10.279Z,100591.36
2019-03-06T07:17:05.281Z,100588.62
2019-03-06T07:17:46.859Z,100587.49